createdAt,value
2017-08-02T00:01:19.008Z,21.90
2017-08-02T00:03:47.976Z,21.90
2017-08-02T00:06:16.381Z,21.90
2017-08-02T00:08:44.906Z,21.80
2017-08-02T00:11:13.767Z,21.80
2017-08-02T00:13:42.137Z,21.70
2017-08-02T00:16:11.844Z,21.70
2017-08-02T00:18:40.494Z,21.70
2017-08-02T00:21:09.288Z,21.70
2017-08-02T00:23:37.602Z,21.80
2017-08-02T00:26:06.334Z,21.80
2017-08-02T00:28:34.505Z,21.80
2017-08-02T00:31:03.299Z,21.80
2017-08-02T00:33:32.131Z,21.80
2017-08-02T00:36:01.281Z,21.80
2017-08-02T00:38:30.152Z,21.80
2017-08-02T00:40:59.082Z,21.80
2017-08-02T00:43:28.553Z,21.80
2017-08-02T00:45:57.202Z,21.80
2017-08-02T00:48:25.755Z,21.80
2017-08-02T00:50:54.341Z,21.80
2017-08-02T00:53:23.056Z,21.80
2017-08-02T00:55:51.841Z,21.80
2017-08-02T00:58:20.637Z,21.80
2017-08-02T01:00:49.207Z,21.80
2017-08-02T01:03:17.794Z,21.80
2017-08-02T01:05:46.845Z,21.80
2017-08-02T01:08:14.966Z,21.80
2017-08-02T01:10:43.692Z,21.80
2017-08-02T01:13:12.756Z,21.80
2017-08-02T01:15:40.834Z,21.80
2017-08-02T01:18:09.958Z,21.80
2017-08-02T01:20:38.875Z,21.80
2017-08-02T01:23:07.486Z,21.70
2017-08-02T01:25:36.059Z,21.70
2017-08-02T01:28:04.705Z,21.70
2017-08-02T01:30:33.675Z,21.70
2017-08-02T01:33:03.313Z,21.70
2017-08-02T01:35:31.561Z,21.70
2017-08-02T01:38:00.261Z,21.70
2017-08-02T01:40:29.100Z,21.70
2017-08-02T01:42:57.973Z,21.70
2017-08-02T01:45:26.961Z,21.70
2017-08-02T01:47:55.617Z,21.70
2017-08-02T01:50:24.855Z,21.60
2017-08-02T01:52:53.844Z,21.70
2017-08-02T01:55:22.582Z,21.60
2017-08-02T01:57:51.563Z,21.60
2017-08-02T02:00:20.335Z,21.60
2017-08-02T02:02:48.544Z,21.60
2017-08-02T02:05:17.846Z,21.50
2017-08-02T02:07:46.555Z,21.50
2017-08-02T02:10:14.650Z,21.50
2017-08-02T02:12:43.703Z,21.50
2017-08-02T02:15:11.919Z,21.50
2017-08-02T02:17:40.299Z,21.50
2017-08-02T02:20:08.975Z,21.50
2017-08-02T02:22:37.557Z,21.40
2017-08-02T02:25:06.199Z,21.40
2017-08-02T02:27:34.733Z,21.40
2017-08-02T02:30:03.683Z,21.30
2017-08-02T02:32:32.066Z,21.30
2017-08-02T02:35:00.378Z,21.30
2017-08-02T02:37:29.223Z,21.30
2017-08-02T02:39:58.437Z,21.30
2017-08-02T02:42:27.173Z,21.30
2017-08-02T02:44:56.299Z,21.30
2017-08-02T02:47:25.336Z,21.30
2017-08-02T02:49:53.972Z,21.30
2017-08-02T02:52:22.442Z,21.30
2017-08-02T02:54:51.454Z,21.30
2017-08-02T02:57:20.170Z,21.30
2017-08-02T02:59:49.016Z,21.20
2017-08-02T03:02:17.788Z,21.20
2017-08-02T03:04:46.761Z,21.20
2017-08-02T03:07:15.682Z,21.20
2017-08-02T03:09:43.961Z,21.20
2017-08-02T03:12:12.837Z,21.20
2017-08-02T03:14:41.573Z,21.20
2017-08-02T03:17:10.944Z,21.20
2017-08-02T03:19:40.144Z,21.20
2017-08-02T03:22:08.875Z,21.20
2017-08-02T03:24:37.340Z,21.20
2017-08-02T03:27:05.498Z,21.20
2017-08-02T03:29:34.100Z,21.20
2017-08-02T03:32:02.468Z,21.20
2017-08-02T03:34:31.263Z,21.20
2017-08-02T03:37:00.509Z,21.30
2017-08-02T03:39:28.713Z,21.30
2017-08-02T03:41:56.898Z,21.20
2017-08-02T03:44:25.859Z,21.20
2017-08-02T03:46:55.020Z,21.20
2017-08-02T03:49:23.088Z,21.20
2017-08-02T03:51:52.045Z,21.10
2017-08-02T03:54:21.473Z,21.10
2017-08-02T03:56:50.373Z,21.00
2017-08-02T03:59:20.515Z,21.00
2017-08-02T04:01:49.374Z,21.00
2017-08-02T04:04:17.878Z,21.00
2017-08-02T04:06:47.101Z,21.00
2017-08-02T04:09:15.797Z,21.00
2017-08-02T04:11:45.312Z,21.00
2017-08-02T04:14:13.883Z,21.00
2017-08-02T04:16:42.434Z,21.00
2017-08-02T04:19:11.826Z,20.90
2017-08-02T04:21:41.058Z,20.90
2017-08-02T04:24:09.474Z,20.90
2017-08-02T04:26:38.837Z,20.90
2017-08-02T04:29:06.876Z,20.90
2017-08-02T04:31:35.439Z,20.90
2017-08-02T04:34:04.304Z,20.90
2017-08-02T04:36:32.647Z,20.80
2017-08-02T04:39:00.837Z,20.80
2017-08-02T04:41:29.727Z,20.90
2017-08-02T04:43:58.318Z,20.90
2017-08-02T04:46:26.995Z,20.90
2017-08-02T04:48:56.034Z,20.90
2017-08-02T04:51:24.414Z,20.90
2017-08-02T04:53:53.407Z,20.90
2017-08-02T04:56:22.128Z,20.90
2017-08-02T04:58:50.652Z,20.90
2017-08-02T05:01:20.247Z,20.90
2017-08-02T05:03:48.638Z,20.90
2017-08-02T05:06:17.413Z,20.90
2017-08-02T05:08:47.236Z,20.90
2017-08-02T05:11:15.708Z,20.90
2017-08-02T05:13:44.488Z,20.90
2017-08-02T05:16:12.833Z,20.90
2017-08-02T05:18:41.788Z,20.90
2017-08-02T05:21:10.772Z,20.90
2017-08-02T05:23:38.761Z,20.90
2017-08-02T05:26:07.563Z,20.90
2017-08-02T05:28:35.696Z,20.90
2017-08-02T05:31:04.547Z,20.90
2017-08-02T05:33:33.045Z,20.90
2017-08-02T05:36:02.375Z,20.90
2017-08-02T05:38:31.627Z,20.90
2017-08-02T05:41:00.245Z,20.90
2017-08-02T05:43:28.785Z,21.00
2017-08-02T05:45:57.595Z,21.00
2017-08-02T05:48:26.418Z,21.10
2017-08-02T05:50:55.062Z,21.20
2017-08-02T05:53:23.700Z,21.20
2017-08-02T05:55:52.738Z,21.40
2017-08-02T05:58:21.990Z,21.40
2017-08-02T06:00:50.089Z,21.40
2017-08-02T06:03:18.715Z,21.50
2017-08-02T06:05:48.293Z,21.60
2017-08-02T06:08:17.659Z,21.60
2017-08-02T06:10:46.638Z,21.70
2017-08-02T06:13:15.947Z,21.70
2017-08-02T06:15:44.241Z,21.70
2017-08-02T06:18:12.875Z,21.70
2017-08-02T06:20:42.412Z,21.70
2017-08-02T06:23:10.778Z,21.70
2017-08-02T06:25:38.906Z,21.70
2017-08-02T06:28:08.186Z,21.70
2017-08-02T06:30:36.454Z,21.70
2017-08-02T06:33:04.849Z,21.70
2017-08-02T06:35:33.390Z,21.80
2017-08-02T06:38:01.659Z,21.80
2017-08-02T06:40:30.274Z,21.80
2017-08-02T06:42:58.970Z,21.80
2017-08-02T06:45:27.757Z,21.80
2017-08-02T06:47:56.349Z,21.80
2017-08-02T06:50:24.879Z,21.90
2017-08-02T06:52:53.668Z,22.00
2017-08-02T06:55:22.491Z,22.10
2017-08-02T06:57:51.175Z,22.10
2017-08-02T07:00:20.010Z,22.20
2017-08-02T07:02:48.230Z,22.20
2017-08-02T07:05:16.942Z,22.30
2017-08-02T07:07:45.662Z,22.40
2017-08-02T07:10:15.405Z,22.50
2017-08-02T07:12:43.681Z,22.50
2017-08-02T07:15:12.072Z,22.60
2017-08-02T07:17:40.593Z,22.60
2017-08-02T07:20:09.976Z,22.90
2017-08-02T07:22:38.161Z,22.90
2017-08-02T07:25:06.525Z,23.00
2017-08-02T07:27:35.232Z,23.20
2017-08-02T07:30:03.638Z,23.20
2017-08-02T07:32:32.778Z,23.30
2017-08-02T07:35:00.904Z,23.30
2017-08-02T07:37:30.065Z,23.40
2017-08-02T07:39:58.676Z,23.40
2017-08-02T07:42:27.267Z,23.50
2017-08-02T07:44:56.173Z,23.50
2017-08-02T07:47:25.151Z,23.50
2017-08-02T07:49:53.910Z,23.40
2017-08-02T07:52:23.058Z,23.40
2017-08-02T07:54:51.632Z,23.40
2017-08-02T07:57:19.955Z,23.40
2017-08-02T07:59:49.050Z,23.50
2017-08-02T08:02:18.185Z,23.60
2017-08-02T08:04:46.901Z,23.60
2017-08-02T08:07:15.182Z,23.60
2017-08-02T08:09:44.084Z,23.80
2017-08-02T08:12:12.398Z,23.80
2017-08-02T08:14:40.907Z,23.90
2017-08-02T08:17:09.953Z,23.90
2017-08-02T08:19:38.765Z,24.00
2017-08-02T08:22:07.397Z,24.00
2017-08-02T08:24:36.454Z,24.00
2017-08-02T08:27:06.648Z,24.00
2017-08-02T08:29:35.106Z,24.00
2017-08-02T08:32:03.906Z,24.00
2017-08-02T08:34:32.287Z,24.00
2017-08-02T08:37:01.137Z,24.10
2017-08-02T08:39:30.857Z,24.30
2017-08-02T08:42:09.599Z,24.30
2017-08-02T08:44:38.495Z,24.40
2017-08-02T08:47:07.300Z,24.40
2017-08-02T08:49:35.840Z,24.40
2017-08-02T08:52:04.710Z,24.50
2017-08-02T08:54:33.183Z,24.50
2017-08-02T08:57:01.365Z,24.60
2017-08-02T08:59:30.531Z,24.80
2017-08-02T09:01:58.926Z,24.80
2017-08-02T09:04:27.001Z,24.90
2017-08-02T09:06:56.800Z,25.00
2017-08-02T09:09:25.844Z,25.30
2017-08-02T09:11:54.635Z,25.30
2017-08-02T09:14:23.572Z,25.50
2017-08-02T09:16:52.598Z,25.80
2017-08-02T09:19:21.295Z,25.80
2017-08-02T09:21:49.783Z,25.90
2017-08-02T09:24:18.453Z,26.10
2017-08-02T09:26:47.679Z,26.40
2017-08-02T09:29:16.977Z,26.80
2017-08-02T09:31:44.965Z,26.80
2017-08-02T09:34:13.502Z,27.00
2017-08-02T09:36:43.918Z,27.20
2017-08-02T09:39:11.901Z,27.20
2017-08-02T09:41:40.348Z,27.60
2017-08-02T09:44:09.346Z,28.00
2017-08-02T09:46:37.501Z,28.30
2017-08-02T09:49:06.191Z,28.60
2017-08-02T09:51:34.187Z,29.00
2017-08-02T09:54:03.166Z,29.40
2017-08-02T09:56:32.333Z,29.60
2017-08-02T09:59:01.649Z,29.90
2017-08-02T10:01:30.160Z,29.90
2017-08-02T10:03:58.889Z,30.00
2017-08-02T10:06:27.200Z,30.50
2017-08-02T10:08:55.688Z,30.70
2017-08-02T10:11:24.109Z,31.00
2017-08-02T10:13:52.832Z,31.30
2017-08-02T10:16:22.084Z,31.60
2017-08-02T10:18:50.252Z,31.80
2017-08-02T10:21:19.079Z,31.90
2017-08-02T10:23:47.973Z,31.60
2017-08-02T10:26:16.765Z,30.80
2017-08-02T10:28:45.398Z,30.80
2017-08-02T10:31:14.950Z,29.90
2017-08-02T10:33:43.322Z,29.90
2017-08-02T10:36:11.937Z,29.50
2017-08-02T10:38:40.966Z,29.30
2017-08-02T10:41:09.783Z,29.00
2017-08-02T10:43:38.320Z,28.80
2017-08-02T10:46:06.553Z,28.60
2017-08-02T10:48:34.323Z,28.50
2017-08-02T10:51:02.556Z,28.30
2017-08-02T10:53:32.608Z,28.20
2017-08-02T10:56:01.688Z,27.90
2017-08-02T10:58:30.969Z,27.80
2017-08-02T11:00:59.445Z,27.80
2017-08-02T11:03:28.340Z,27.80
2017-08-02T11:05:57.027Z,27.80
2017-08-02T11:08:25.586Z,27.80
2017-08-02T11:10:54.333Z,27.80
2017-08-02T11:13:22.562Z,27.80
2017-08-02T11:15:51.255Z,27.80
2017-08-02T11:18:20.384Z,27.90
2017-08-02T11:20:49.261Z,27.90
2017-08-02T11:23:17.691Z,27.90
2017-08-02T11:25:46.138Z,28.00
2017-08-02T11:28:14.315Z,28.00
2017-08-02T11:30:44.107Z,27.90
2017-08-02T11:33:12.592Z,27.90
2017-08-02T11:35:41.344Z,27.90
2017-08-02T11:38:10.003Z,27.90
2017-08-02T11:40:39.472Z,27.90
2017-08-02T11:43:07.558Z,27.90
2017-08-02T11:45:36.126Z,27.90
2017-08-02T11:48:05.286Z,27.90
2017-08-02T11:50:33.962Z,27.90
2017-08-02T11:53:02.510Z,27.90
2017-08-02T11:55:31.035Z,27.90
2017-08-02T11:57:59.489Z,27.90
2017-08-02T12:00:28.220Z,28.00
2017-08-02T12:02:57.103Z,27.90
2017-08-02T12:05:25.703Z,27.90
2017-08-02T12:07:54.814Z,27.70
2017-08-02T12:10:23.204Z,27.70
2017-08-02T12:12:51.732Z,27.60
2017-08-02T12:15:20.517Z,27.60
2017-08-02T12:17:49.564Z,27.60
2017-08-02T12:20:17.724Z,27.60
2017-08-02T12:22:46.409Z,27.60
2017-08-02T12:25:15.087Z,27.60
2017-08-02T12:27:43.805Z,27.70
2017-08-02T12:30:12.636Z,27.70
2017-08-02T12:32:41.773Z,27.70
2017-08-02T12:35:10.556Z,27.70
2017-08-02T12:37:39.041Z,27.70
2017-08-02T12:40:07.911Z,27.80
2017-08-02T12:42:37.177Z,27.80
2017-08-02T12:45:05.203Z,27.80
2017-08-02T12:47:34.683Z,27.80
2017-08-02T12:50:03.234Z,27.90
2017-08-02T12:52:31.719Z,27.90
2017-08-02T12:55:00.057Z,27.90
2017-08-02T12:57:28.445Z,27.90
2017-08-02T12:59:57.484Z,27.90
2017-08-02T13:02:26.498Z,27.90
2017-08-02T13:04:55.248Z,27.80
2017-08-02T13:07:23.740Z,27.80
2017-08-02T13:09:53.475Z,27.80
2017-08-02T13:12:21.792Z,27.80
2017-08-02T13:14:50.086Z,27.80
2017-08-02T13:17:18.800Z,27.80
2017-08-02T13:19:46.997Z,27.80
2017-08-02T13:22:15.823Z,27.90
2017-08-02T13:24:44.653Z,27.90
2017-08-02T13:27:13.813Z,27.90
2017-08-02T13:29:41.591Z,27.90
2017-08-02T13:32:09.712Z,27.90
2017-08-02T13:34:38.508Z,27.90
2017-08-02T13:37:07.810Z,27.90
2017-08-02T13:39:36.264Z,27.90
2017-08-02T13:42:05.366Z,28.00
2017-08-02T13:44:33.897Z,28.00
2017-08-02T13:47:02.572Z,28.00
2017-08-02T13:49:31.405Z,28.00
2017-08-02T13:52:00.348Z,28.10
2017-08-02T13:54:30.699Z,28.10
2017-08-02T13:56:59.110Z,28.10
2017-08-02T13:59:27.893Z,28.20
2017-08-02T14:01:55.811Z,28.20
2017-08-02T14:04:24.567Z,28.10
2017-08-02T14:06:53.108Z,28.10
2017-08-02T14:09:21.284Z,28.10
2017-08-02T14:11:50.147Z,28.10
2017-08-02T14:14:18.880Z,28.10
2017-08-02T14:16:46.932Z,28.10
2017-08-02T14:19:16.179Z,28.10
2017-08-02T14:21:44.748Z,28.20
2017-08-02T14:24:12.990Z,28.20
2017-08-02T14:26:42.114Z,28.20
2017-08-02T14:29:10.756Z,28.20
2017-08-02T14:31:38.505Z,28.20
2017-08-02T14:34:07.556Z,28.10
2017-08-02T14:36:36.510Z,28.20
2017-08-02T14:39:05.502Z,28.20
2017-08-02T14:41:34.251Z,28.20
2017-08-02T14:44:02.541Z,28.30
2017-08-02T14:46:31.513Z,28.30
2017-08-02T14:49:00.563Z,28.30
2017-08-02T14:51:28.464Z,28.30
2017-08-02T14:53:57.526Z,28.30
2017-08-02T14:56:25.850Z,28.30
2017-08-02T14:58:54.685Z,28.30
2017-08-02T15:01:23.542Z,28.30
2017-08-02T15:03:51.760Z,28.30
2017-08-02T15:06:20.092Z,28.30
2017-08-02T15:08:48.476Z,28.30
2017-08-02T15:11:17.754Z,28.30
2017-08-02T15:13:46.624Z,28.20
2017-08-02T15:16:14.878Z,28.20
2017-08-02T15:18:43.363Z,28.10
2017-08-02T15:21:12.449Z,28.10
2017-08-02T15:23:41.731Z,28.10
2017-08-02T15:26:10.216Z,28.10
2017-08-02T15:28:39.072Z,28.10
2017-08-02T15:31:07.730Z,28.20
2017-08-02T15:33:37.225Z,28.20
2017-08-02T15:36:05.819Z,28.30
2017-08-02T15:38:34.545Z,28.20
2017-08-02T15:41:03.130Z,28.20
2017-08-02T15:43:31.935Z,28.20
2017-08-02T15:46:00.304Z,28.20
2017-08-02T15:48:28.715Z,28.20
2017-08-02T15:50:58.122Z,28.20
2017-08-02T15:53:26.181Z,28.20
2017-08-02T15:55:54.581Z,28.10
2017-08-02T15:58:23.782Z,28.10
2017-08-02T16:00:51.933Z,28.10
2017-08-02T16:03:20.714Z,28.00
2017-08-02T16:05:48.958Z,28.00
2017-08-02T16:08:17.106Z,27.90
2017-08-02T16:10:46.265Z,27.90
2017-08-02T16:13:15.013Z,27.90
2017-08-02T16:15:43.400Z,27.90
2017-08-02T16:18:11.972Z,27.80
2017-08-02T16:20:41.310Z,27.80
2017-08-02T16:23:09.503Z,27.80
2017-08-02T16:25:38.983Z,27.80
2017-08-02T16:28:08.128Z,27.80
2017-08-02T16:30:37.089Z,27.80
2017-08-02T16:33:04.785Z,27.80
2017-08-02T16:35:33.752Z,27.70
2017-08-02T16:38:02.190Z,27.70
2017-08-02T16:40:31.183Z,27.60
2017-08-02T16:42:59.394Z,27.60
2017-08-02T16:45:28.666Z,27.60
2017-08-02T16:47:57.733Z,27.60
2017-08-02T16:50:26.587Z,27.60
2017-08-02T16:52:55.550Z,27.60
2017-08-02T16:55:23.424Z,27.60
2017-08-02T16:57:52.071Z,27.50
2017-08-02T17:00:21.537Z,27.50
2017-08-02T17:02:50.449Z,27.50
2017-08-02T17:05:18.616Z,27.50
2017-08-02T17:07:47.588Z,27.50
2017-08-02T17:10:16.527Z,27.40
2017-08-02T17:12:45.559Z,27.40
2017-08-02T17:15:14.863Z,27.40
2017-08-02T17:17:43.859Z,27.30
2017-08-02T17:20:13.207Z,27.30
2017-08-02T17:22:42.557Z,27.30
2017-08-02T17:25:10.966Z,27.30
2017-08-02T17:27:39.964Z,27.30
2017-08-02T17:30:08.561Z,27.30
2017-08-02T17:32:38.157Z,27.30
2017-08-02T17:35:08.740Z,27.30
2017-08-02T17:37:37.483Z,27.30
2017-08-02T17:40:06.881Z,27.30
2017-08-02T17:42:35.964Z,27.20
2017-08-02T17:45:04.284Z,27.20
2017-08-02T17:47:32.589Z,27.20
2017-08-02T17:50:02.197Z,27.20
2017-08-02T17:52:30.764Z,27.20
2017-08-02T17:55:00.209Z,27.10
2017-08-02T17:57:28.466Z,27.10
2017-08-02T17:59:57.759Z,27.10
2017-08-02T18:02:26.498Z,27.10
2017-08-02T18:04:55.584Z,27.00
2017-08-02T18:07:25.367Z,27.00
2017-08-02T18:09:54.948Z,27.00
2017-08-02T18:12:23.781Z,26.90
2017-08-02T18:14:52.664Z,26.90
2017-08-02T18:17:21.937Z,26.80
2017-08-02T18:19:50.402Z,26.80
2017-08-02T18:22:18.795Z,26.80
2017-08-02T18:24:47.586Z,26.80
2017-08-02T18:27:16.908Z,26.70
2017-08-02T18:29:46.370Z,26.60
2017-08-02T18:32:15.065Z,26.60
2017-08-02T18:34:44.347Z,26.50
2017-08-02T18:37:22.500Z,26.50
2017-08-02T18:39:50.856Z,26.50
2017-08-02T18:42:19.457Z,26.50
2017-08-02T18:44:48.341Z,26.40
2017-08-02T18:47:17.063Z,26.40
2017-08-02T18:49:46.317Z,26.30
2017-08-02T18:52:15.507Z,26.30
2017-08-02T18:54:44.582Z,26.20
2017-08-02T18:57:13.962Z,26.20
2017-08-02T18:59:42.196Z,26.20
2017-08-02T19:02:10.680Z,26.10
2017-08-02T19:04:39.721Z,26.00
2017-08-02T19:07:08.998Z,26.00
2017-08-02T19:09:38.483Z,25.90
2017-08-02T19:12:06.958Z,25.90
2017-08-02T19:14:35.952Z,25.90
2017-08-02T19:17:04.548Z,25.90
2017-08-02T19:19:33.601Z,25.80
2017-08-02T19:22:02.134Z,25.80
2017-08-02T19:24:31.910Z,25.70
2017-08-02T19:27:00.464Z,25.70
2017-08-02T19:29:28.723Z,25.60
2017-08-02T19:31:56.976Z,25.50
2017-08-02T19:34:25.474Z,25.50
2017-08-02T19:36:55.496Z,25.40
2017-08-02T19:39:25.038Z,25.40
2017-08-02T19:41:53.244Z,25.30
2017-08-02T19:44:22.210Z,25.20
2017-08-02T19:46:50.959Z,25.20
2017-08-02T19:49:20.573Z,25.10
2017-08-02T19:51:49.901Z,25.00
2017-08-02T19:54:18.520Z,25.00
2017-08-02T19:56:46.974Z,25.00
2017-08-02T19:59:15.816Z,24.90
2017-08-02T20:01:44.272Z,24.90
2017-08-02T20:04:12.580Z,24.80
2017-08-02T20:06:41.741Z,24.70
2017-08-02T20:09:09.884Z,24.70
2017-08-02T20:11:38.836Z,24.70
2017-08-02T20:14:07.444Z,24.60
2017-08-02T20:16:35.977Z,24.60
2017-08-02T20:19:05.363Z,24.50
2017-08-02T20:21:33.768Z,24.50
2017-08-02T20:24:02.396Z,24.50
2017-08-02T20:26:31.360Z,24.40
2017-08-02T20:29:01.171Z,24.30
2017-08-02T20:31:30.200Z,24.40
2017-08-02T20:33:58.555Z,24.30
2017-08-02T20:36:28.619Z,24.20
2017-08-02T20:38:57.468Z,24.20
2017-08-02T20:41:27.538Z,24.10
2017-08-02T20:43:56.900Z,24.10
2017-08-02T20:46:25.944Z,24.00
2017-08-02T20:48:54.762Z,24.00
2017-08-02T20:51:23.982Z,23.90
2017-08-02T20:53:52.711Z,23.90
2017-08-02T20:56:21.393Z,23.90
2017-08-02T20:58:51.139Z,23.70
2017-08-02T21:01:18.913Z,23.70
2017-08-02T21:03:48.828Z,23.60
2017-08-02T21:06:17.708Z,23.60
2017-08-02T21:08:46.686Z,23.60
2017-08-02T21:11:15.599Z,23.50
2017-08-02T21:13:44.521Z,23.50
2017-08-02T21:16:12.854Z,23.40
2017-08-02T21:18:41.686Z,23.30
2017-08-02T21:21:09.810Z,23.30
2017-08-02T21:23:38.652Z,23.30
2017-08-02T21:26:07.547Z,23.30
2017-08-02T21:28:36.688Z,23.20
2017-08-02T21:31:05.667Z,23.20
2017-08-02T21:33:34.420Z,23.20
2017-08-02T21:36:02.810Z,23.10
2017-08-02T21:38:32.028Z,23.10
2017-08-02T21:41:02.217Z,23.10
2017-08-02T21:43:31.529Z,23.10
2017-08-02T21:46:00.121Z,23.00
2017-08-02T21:48:29.494Z,23.00
2017-08-02T21:50:57.834Z,23.00
2017-08-02T21:53:26.651Z,22.90
2017-08-02T21:55:55.648Z,22.80
2017-08-02T21:58:24.507Z,22.70
2017-08-02T22:00:53.391Z,22.70
2017-08-02T22:03:22.357Z,22.70
2017-08-02T22:05:50.440Z,22.70
2017-08-02T22:08:19.110Z,22.70
2017-08-02T22:10:47.377Z,22.70
2017-08-02T22:13:16.084Z,22.70
2017-08-02T22:15:45.725Z,22.60
2017-08-02T22:18:14.229Z,22.60
2017-08-02T22:20:43.035Z,22.60
2017-08-02T22:23:11.442Z,22.60
2017-08-02T22:25:40.048Z,22.50
2017-08-02T22:28:08.809Z,22.50
2017-08-02T22:30:38.867Z,22.40
2017-08-02T22:33:08.438Z,22.40
2017-08-02T22:35:37.820Z,22.30
2017-08-02T22:38:07.739Z,22.40
2017-08-02T22:40:36.526Z,22.30
2017-08-02T22:43:05.433Z,22.30
2017-08-02T22:45:34.546Z,22.30
2017-08-02T22:48:03.495Z,22.30
2017-08-02T22:50:32.195Z,22.30
2017-08-02T22:53:00.980Z,22.20
2017-08-02T22:55:29.340Z,22.20
2017-08-02T22:57:58.526Z,22.20
2017-08-02T23:00:27.399Z,22.20
2017-08-02T23:02:56.357Z,22.10
2017-08-02T23:05:25.143Z,22.10
2017-08-02T23:07:53.741Z,22.10
2017-08-02T23:10:22.559Z,22.10
2017-08-02T23:12:51.025Z,22.10
2017-08-02T23:15:19.740Z,22.10
2017-08-02T23:17:48.818Z,22.10
2017-08-02T23:20:18.187Z,22.10
2017-08-02T23:22:48.126Z,22.00
2017-08-02T23:25:17.376Z,22.00
2017-08-02T23:27:47.132Z,22.00
2017-08-02T23:30:16.121Z,22.00
2017-08-02T23:32:45.066Z,22.00
2017-08-02T23:35:13.617Z,22.00
2017-08-02T23:37:42.320Z,22.00
2017-08-02T23:40:12.666Z,22.00
2017-08-02T23:42:41.330Z,22.00
2017-08-02T23:45:09.812Z,21.90
2017-08-02T23:47:38.916Z,21.90
2017-08-02T23:50:07.921Z,21.90
2017-08-02T23:52:37.595Z,21.90
2017-08-02T23:55:07.072Z,21.90
2017-08-02T23:57:36.869Z,21.80
